Rayong, Thailand

6:27 AM ICT on September 04, 2015 (GMT +0700)
Nhong Yai In | | Change Station
CLOSE
Current Station
Personal Weather Station
Location: Phe, Rayong
Elevation: 26 ft
Nearby Weather Stations

Elev 26 ft 12.62 °N, 101.40 °E | Updated 0 second ago

Mostly Cloudy
Mostly Cloudy
78.1 °F
Feels Like 81 °F
N
4.0
Wind Variable Wind from ENE
Gusts 4.0 mph

Today
High -- | Low -- °F
--% Chance of Precip.
Yesterday
High -- | Low -- °F
Precip. -- in
6:03 AM 6:23 PM
Waning Gibbous, 66% visible
Pressure 29.86 in
Visibility 5.0 miles
Clouds Few 2000 ft
Mostly Cloudy 30000 ft
Heat Index 81 °F
Dew Point 75 °F
Humidity 89%
Rainfall 0.00 in
Snow Depth Not available.
UV 0 out of 12
Pollen Not available.
Air Quality Not available.
Flu Activity Not available.
METAR VTBU 032300Z 35002KT 8000 FEW020 BKN300 26/23 Q1011 A2986
Pressure 29.86 in
Visibility 5.0 miles
Clouds Few 2000 ft
Mostly Cloudy 30000 ft
Heat Index 81 °F
Dew Point 75 °F
Humidity 89%
Rainfall 0.00 in
Snow Depth Not available.
UV 0 out of 12
Pollen Not available.
Air Quality Not available.
Flu Activity Not available.
METAR VTBU 032300Z 35002KT 8000 FEW020 BKN300 26/23 Q1011 A2986

10-Day Weather Forecast

×

Almanac

Astronomy

Sep. 04, 2015 Rise Set
Actual Time
Civil Twilight
Nautical Twilight
Astronomical Twilight
Moon
Length of Visible Light
Length of Day
Tomorrow will be .
, % of the Moon is Illuminated

Today's Extremes

Country Highs Country Lows

Community

WunderPhotos

Upload Photos

1,852,060 photos uploaded!

WunderBlogs® & News

Nearby

Air Quality

  Air Quality AQ Index Pollutant
Not available.

Snow Depth

Station Depth Elevation

Earthquake Activity

City Distance Mag. Time & Date
Minimum magnitude displayed is 2.5.

Coastal Water Temperatures

Place Temperature

Stations

Nearby Weather Stations

Station Location Temp. Windchill Dew Point Humidity Wind Precip. Elev Updated Type